createdAt,value
2018-12-20T00:04:32.130Z,33.13
2018-12-20T00:09:23.128Z,28.30
2018-12-20T00:14:13.926Z,30.70
2018-12-20T00:19:04.821Z,30.40
2018-12-20T00:23:55.708Z,35.43
2018-12-20T00:28:46.679Z,38.00
2018-12-20T00:33:37.634Z,28.47
2018-12-20T00:38:29.387Z,30.00
2018-12-20T00:43:20.133Z,34.07
2018-12-20T00:48:11.009Z,32.13
2018-12-20T00:53:02.020Z,32.83
2018-12-20T00:57:53.013Z,36.40
2018-12-20T01:02:45.232Z,34.83
2018-12-20T01:07:36.117Z,36.13
2018-12-20T01:12:27.000Z,35.23
2018-12-20T01:17:18.511Z,34.50
2018-12-20T01:22:08.797Z,31.93
2018-12-20T01:26:59.780Z,35.37
2018-12-20T01:31:51.414Z,34.97
2018-12-20T01:36:42.490Z,37.30
2018-12-20T01:41:33.307Z,38.00
2018-12-20T01:46:24.368Z,36.73
2018-12-20T01:51:16.187Z,32.77
2018-12-20T01:56:07.007Z,32.73
2018-12-20T02:00:58.208Z,36.50
2018-12-20T02:05:48.872Z,36.97
2018-12-20T02:10:39.801Z,36.27
2018-12-20T02:15:30.687Z,37.70
2018-12-20T02:20:22.563Z,36.80
2018-12-20T02:25:13.250Z,36.17
2018-12-20T02:30:04.892Z,36.60
2018-12-20T02:35:04.555Z,36.70
2018-12-20T02:39:55.374Z,35.10
2018-12-20T02:44:46.271Z,37.47
2018-12-20T02:49:37.281Z,41.53
2018-12-20T02:54:29.062Z,33.27
2018-12-20T02:59:19.915Z,34.90
2018-12-20T03:04:10.826Z,33.90
2018-12-20T03:09:01.800Z,44.17
2018-12-20T03:13:53.455Z,38.50
2018-12-20T03:18:44.348Z,35.27
2018-12-20T03:23:35.270Z,40.00
2018-12-20T03:28:26.446Z,37.70
2018-12-20T03:33:17.336Z,33.67
2018-12-20T03:38:08.060Z,35.20
2018-12-20T03:42:59.013Z,41.47
2018-12-20T03:47:50.780Z,39.23
2018-12-20T03:52:41.572Z,42.13
2018-12-20T03:57:32.544Z,42.70
2018-12-20T04:02:23.656Z,32.17
2018-12-20T04:07:14.390Z,42.33
2018-12-20T04:12:05.427Z,41.63
2018-12-20T04:16:57.313Z,36.43
2018-12-20T04:21:48.079Z,42.37
2018-12-20T04:26:39.032Z,39.97
2018-12-20T04:31:29.777Z,42.20
2018-12-20T04:36:20.964Z,39.50
2018-12-20T04:41:12.651Z,43.97
2018-12-20T04:46:03.712Z,41.50
2018-12-20T04:50:54.447Z,37.40
2018-12-20T04:55:45.404Z,39.40
2018-12-20T05:00:36.281Z,42.17
2018-12-20T05:05:27.231Z,43.00
2018-12-20T05:10:18.321Z,44.03
2018-12-20T05:15:10.044Z,42.00
2018-12-20T05:20:00.850Z,40.50
2018-12-20T05:24:51.734Z,44.80
2018-12-20T05:29:42.636Z,41.37
2018-12-20T05:34:33.551Z,38.47
2018-12-20T05:39:24.487Z,41.00
2018-12-20T05:44:15.574Z,41.10
2018-12-20T05:49:07.850Z,42.83
2018-12-20T05:53:58.806Z,43.30
2018-12-20T05:58:49.815Z,44.77
2018-12-20T06:03:41.466Z,45.17
2018-12-20T06:08:32.404Z,43.87
2018-12-20T06:13:30.148Z,44.00
2018-12-20T06:18:21.916Z,49.57
2018-12-20T06:23:12.977Z,43.57
2018-12-20T06:28:04.538Z,46.43
2018-12-20T06:32:55.447Z,38.70
2018-12-20T06:37:46.381Z,47.30
2018-12-20T06:42:37.288Z,41.53
2018-12-20T06:47:28.186Z,44.87
2018-12-20T06:52:19.144Z,46.70
2018-12-20T06:57:10.202Z,44.27
2018-12-20T07:02:01.099Z,41.90
2018-12-20T07:06:52.808Z,48.13
2018-12-20T07:11:43.719Z,43.43
2018-12-20T07:16:34.629Z,44.80
2018-12-20T07:21:25.530Z,40.10
2018-12-20T07:26:16.496Z,47.47
2018-12-20T07:31:07.404Z,41.53
2018-12-20T07:35:58.328Z,42.30
2018-12-20T07:40:49.840Z,47.40
2018-12-20T07:45:40.774Z,40.23
2018-12-20T07:50:31.684Z,39.40
2018-12-20T07:55:22.587Z,46.77
2018-12-20T08:00:13.536Z,41.57
2018-12-20T08:05:05.913Z,45.03
2018-12-20T08:09:57.584Z,42.93
2018-12-20T08:14:48.487Z,45.90
2018-12-20T08:19:39.386Z,45.80
2018-12-20T08:24:31.036Z,42.60
2018-12-20T08:29:22.684Z,51.70
2018-12-20T08:34:13.595Z,45.73
2018-12-20T08:39:04.495Z,52.50
2018-12-20T08:43:56.130Z,43.03
2018-12-20T08:48:47.779Z,52.83
2018-12-20T08:53:39.431Z,49.40
2018-12-20T08:58:30.342Z,41.97
2018-12-20T09:03:21.242Z,42.80
2018-12-20T09:08:12.903Z,47.93
2018-12-20T09:13:09.541Z,50.27
2018-12-20T09:17:54.800Z,50.00
2018-12-20T09:22:45.709Z,48.73
2018-12-20T09:27:36.727Z,45.40
2018-12-20T09:32:27.626Z,42.77
2018-12-20T09:37:18.531Z,48.00
2018-12-20T09:42:09.447Z,49.10
2018-12-20T09:47:11.662Z,49.63
2018-12-20T09:51:57.402Z,44.30
2018-12-20T09:56:49.047Z,48.60
2018-12-20T10:01:40.020Z,46.67
2018-12-20T10:06:30.922Z,37.23
2018-12-20T10:11:21.839Z,45.97
2018-12-20T10:16:12.742Z,40.77
2018-12-20T10:21:03.646Z,40.90
2018-12-20T10:25:54.552Z,44.37
2018-12-20T10:30:45.466Z,40.33
2018-12-20T10:35:37.106Z,42.23
2018-12-20T10:40:28.002Z,41.37
2018-12-20T10:45:18.900Z,39.30
2018-12-20T10:50:10.539Z,40.00
2018-12-20T10:55:01.443Z,36.10
2018-12-20T10:59:52.357Z,40.00
2018-12-20T11:04:43.363Z,45.27
2018-12-20T11:09:40.542Z,39.53
2018-12-20T11:14:31.453Z,40.87
2018-12-20T11:19:22.350Z,39.30
2018-12-20T11:24:13.301Z,32.23
2018-12-20T11:29:04.228Z,36.43
2018-12-20T11:33:55.296Z,40.50
2018-12-20T11:38:46.934Z,32.43
2018-12-20T11:43:37.831Z,32.33
2018-12-20T11:48:29.547Z,36.50
2018-12-20T11:53:20.460Z,39.87
2018-12-20T11:58:11.374Z,41.00
2018-12-20T12:03:02.286Z,38.20
2018-12-20T12:07:53.223Z,41.20
2018-12-20T12:12:44.244Z,36.50
2018-12-20T12:17:35.155Z,37.17
2018-12-20T12:22:26.092Z,35.10
2018-12-20T12:27:17.100Z,37.07
2018-12-20T12:32:08.013Z,37.07
2018-12-20T12:36:58.919Z,33.50
2018-12-20T12:41:49.830Z,31.83
2018-12-20T12:46:40.750Z,34.07
2018-12-20T12:51:31.665Z,33.83
2018-12-20T12:56:22.559Z,35.60
2018-12-20T13:01:13.468Z,29.20
2018-12-20T13:06:04.380Z,34.97
2018-12-20T13:10:57.356Z,37.03
2018-12-20T13:15:47.747Z,31.63
2018-12-20T13:20:38.751Z,33.10
2018-12-20T13:25:29.660Z,30.10
2018-12-20T13:30:20.558Z,30.87
2018-12-20T13:35:11.454Z,30.77
2018-12-20T13:40:02.420Z,34.03
2018-12-20T13:44:53.332Z,33.03
2018-12-20T13:49:44.230Z,34.17
2018-12-20T13:54:35.135Z,35.77
2018-12-20T13:59:26.048Z,29.67
2018-12-20T14:04:17.008Z,32.27
2018-12-20T14:09:08.216Z,30.23
2018-12-20T14:13:59.116Z,30.43
2018-12-20T14:18:50.084Z,27.47
2018-12-20T14:23:41.027Z,26.83
2018-12-20T14:28:32.688Z,31.27
2018-12-20T14:33:23.688Z,28.90
2018-12-20T14:38:14.596Z,34.90
2018-12-20T14:43:06.249Z,25.63
2018-12-20T14:47:57.161Z,30.50
2018-12-20T14:52:48.085Z,28.47
2018-12-20T14:57:39.047Z,26.83
2018-12-20T15:02:29.942Z,31.83
2018-12-20T15:07:20.847Z,30.27
2018-12-20T15:12:11.766Z,29.93
2018-12-20T15:17:02.682Z,28.23
2018-12-20T15:21:53.574Z,25.37
2018-12-20T15:26:45.235Z,29.93
2018-12-20T15:31:36.144Z,23.67
2018-12-20T15:36:27.048Z,27.00
2018-12-20T15:41:18.705Z,24.20
2018-12-20T15:46:09.603Z,25.97
2018-12-20T15:51:01.251Z,25.90
2018-12-20T15:55:52.956Z,23.70
2018-12-20T16:00:43.857Z,25.27
2018-12-20T16:05:34.772Z,23.63
2018-12-20T16:10:25.694Z,23.30
2018-12-20T16:15:16.609Z,26.70
2018-12-20T16:20:07.548Z,25.33
2018-12-20T16:24:58.584Z,22.03
2018-12-20T16:29:50.262Z,22.87
2018-12-20T16:34:41.175Z,21.30
2018-12-20T16:39:32.079Z,19.43
2018-12-20T16:44:23.042Z,18.67
2018-12-20T16:49:14.069Z,21.33
2018-12-20T16:54:04.891Z,21.20
2018-12-20T16:58:55.794Z,20.20
2018-12-20T17:03:46.807Z,21.60
2018-12-20T17:08:37.638Z,20.20
2018-12-20T17:13:28.543Z,25.57
2018-12-20T17:18:19.458Z,17.87
2018-12-20T17:23:10.371Z,20.73
2018-12-20T17:28:01.266Z,17.40
2018-12-20T17:32:52.176Z,17.87
2018-12-20T17:37:43.812Z,18.93
2018-12-20T17:42:35.450Z,20.97
2018-12-20T17:47:27.086Z,24.27
2018-12-20T17:52:18.722Z,20.27
2018-12-20T17:57:10.365Z,24.00
2018-12-20T18:02:01.289Z,21.80
2018-12-20T18:06:52.200Z,19.73
2018-12-20T18:11:43.111Z,16.00
2018-12-20T18:16:34.768Z,19.93
2018-12-20T18:21:25.678Z,20.33
2018-12-20T18:26:16.643Z,19.57
2018-12-20T18:31:07.557Z,21.07
2018-12-20T18:35:58.473Z,18.93
2018-12-20T18:40:49.383Z,17.17
2018-12-20T18:45:40.299Z,18.03
2018-12-20T18:50:31.256Z,15.50
2018-12-20T18:55:22.165Z,15.30
2018-12-20T19:00:13.086Z,18.03
2018-12-20T19:05:04.101Z,16.73
2018-12-20T19:09:55.125Z,19.87
2018-12-20T19:14:46.221Z,17.37
2018-12-20T19:19:37.136Z,17.47
2018-12-20T19:24:28.057Z,14.90
2018-12-20T19:29:19.007Z,16.90
2018-12-20T19:34:09.907Z,14.90
2018-12-20T19:39:00.825Z,15.60
2018-12-20T19:43:51.731Z,15.53
2018-12-20T19:48:42.636Z,15.07
2018-12-20T19:53:33.549Z,14.77
2018-12-20T19:58:24.450Z,11.67
2018-12-20T20:03:16.108Z,15.27
2018-12-20T20:08:07.028Z,14.27
2018-12-20T20:12:57.946Z,13.40
2018-12-20T20:17:48.855Z,13.10
2018-12-20T20:22:39.758Z,12.53
2018-12-20T20:27:31.403Z,13.57
2018-12-20T20:32:22.312Z,14.67
2018-12-20T20:37:13.959Z,15.37
2018-12-20T20:42:04.877Z,12.97
2018-12-20T20:46:55.847Z,14.33
2018-12-20T20:51:46.768Z,10.60
2018-12-20T20:56:37.707Z,12.73
2018-12-20T21:01:28.659Z,11.10
2018-12-20T21:06:19.571Z,14.70
2018-12-20T21:11:10.484Z,11.40
2018-12-20T21:16:02.193Z,10.33
2018-12-20T21:20:53.089Z,11.10
2018-12-20T21:25:43.994Z,11.60
2018-12-20T21:30:34.890Z,10.73
2018-12-20T21:35:25.851Z,10.37
2018-12-20T21:40:18.653Z,10.87
2018-12-20T21:45:07.814Z,9.73
2018-12-20T21:49:58.710Z,9.93
2018-12-20T21:54:49.624Z,9.67
2018-12-20T21:59:40.556Z,11.83
2018-12-20T22:04:31.472Z,9.63
2018-12-20T22:09:22.492Z,9.33
2018-12-20T22:14:13.410Z,10.20
2018-12-20T22:19:04.324Z,12.43
2018-12-20T22:23:55.260Z,8.73
2018-12-20T22:28:47.656Z,8.87
2018-12-20T22:33:38.560Z,8.93
2018-12-20T22:38:29.476Z,9.57
2018-12-20T22:43:21.395Z,8.23
2018-12-20T22:48:13.062Z,7.77
2018-12-20T22:53:03.985Z,8.63
2018-12-20T22:57:54.955Z,7.70
2018-12-20T23:02:47.364Z,8.70
2018-12-20T23:07:38.298Z,8.27
2018-12-20T23:12:29.217Z,8.00
2018-12-20T23:17:22.315Z,7.47
2018-12-20T23:22:11.079Z,10.50
2018-12-20T23:27:01.971Z,6.70
2018-12-20T23:31:52.866Z,6.37
2018-12-20T23:36:44.507Z,7.03
2018-12-20T23:41:35.475Z,6.67
2018-12-20T23:46:26.374Z,6.80
2018-12-20T23:51:17.312Z,7.10
2018-12-20T23:56:08.220Z,7.00
